Time;durP1;ratioP1;P1;durP2;ratioP2;P2;SDS_P1;SDS_P2;PMS_P1;PMS_P2;Temp;Humidity;BMP_temperature;BMP_pressure;BME280_temperature;BME280_humidity;BME280_pressure;Samples;Min_cycle;Max_cycle;Signal;HPM_P1;HPM_P2
2021/03/10 00:00:09;;;;;;;29.92;14.23;;;;;;;2.82;86.69;101102.50;123495;1106;65017;-79
2021/03/10 00:02:35;;;;;;;31.80;15.43;;;;;;;2.84;87.26;101100.61;123486;1105;65029;-79
2021/03/10 00:05:05;;;;;;;30.53;15.37;;;;;;;2.86;87.32;101103.95;123466;1105;64977;-76
2021/03/10 00:07:32;;;;;;;30.37;15.43;;;;;;;2.88;86.63;101113.50;123409;1105;64921;-77
2021/03/10 00:09:58;;;;;;;29.33;14.23;;;;;;;2.87;86.44;101107.43;123387;1104;65517;-76
2021/03/10 00:12:25;;;;;;;29.77;15.80;;;;;;;2.85;86.93;101122.42;123399;1105;64908;-78
2021/03/10 00:14:51;;;;;;;34.73;16.90;;;;;;;2.84;87.08;101116.33;123426;1105;65043;-78
2021/03/10 00:17:18;;;;;;;32.93;16.17;;;;;;;2.86;86.99;101122.29;123518;1106;65010;-77
2021/03/10 00:19:45;;;;;;;32.20;16.07;;;;;;;2.84;86.74;101121.56;123447;1105;64837;-78
2021/03/10 00:22:12;;;;;;;33.10;15.93;;;;;;;2.84;86.55;101129.43;123631;1105;64953;-78
2021/03/10 00:24:38;;;;;;;39.33;18.67;;;;;;;2.82;86.78;101133.95;123398;1105;64908;-79
2021/03/10 00:27:07;;;;;;;36.07;16.53;;;;;;;2.82;86.28;101128.70;123379;1105;64955;-77
2021/03/10 00:29:33;;;;;;;37.80;17.30;;;;;;;2.82;87.25;101123.47;123411;1105;64998;-76
2021/03/10 00:31:59;;;;;;;30.67;16.57;;;;;;;2.83;86.37;101124.33;123423;1105;64891;-76
2021/03/10 00:34:26;;;;;;;30.37;14.65;;;;;;;2.81;86.79;101126.22;123416;1106;65548;-76
2021/03/10 00:36:52;;;;;;;32.70;17.50;;;;;;;2.81;86.49;101132.29;123408;1105;65148;-77
2021/03/10 00:39:18;;;;;;;33.97;15.97;;;;;;;2.82;86.67;101127.88;123413;1105;65304;-75
2021/03/10 00:41:44;;;;;;;32.93;15.70;;;;;;;2.81;86.71;101127.05;123431;1106;65709;-78
2021/03/10 00:44:10;;;;;;;41.27;16.73;;;;;;;2.80;86.80;101130.60;123380;1105;64923;-76
2021/03/10 00:46:37;;;;;;;42.90;18.63;;;;;;;2.79;87.06;101125.50;123433;1105;64976;-76
2021/03/10 00:49:03;;;;;;;42.03;18.30;;;;;;;2.78;86.52;101140.36;123420;1105;65663;-77
2021/03/10 00:51:29;;;;;;;35.93;17.23;;;;;;;2.76;86.24;101139.67;123353;1105;64946;-77
2021/03/10 00:53:56;;;;;;;32.98;16.20;;;;;;;2.76;87.32;101139.67;123407;1105;65374;-78
2021/03/10 00:56:22;;;;;;;31.53;15.10;;;;;;;2.79;87.59;101139.43;123432;1105;64895;-77
2021/03/10 00:58:50;;;;;;;36.65;15.95;;;;;;;2.84;86.81;101139.08;123395;1105;65670;-77
2021/03/10 01:01:16;;;;;;;30.30;15.60;;;;;;;2.82;87.02;101143.59;123757;1105;65743;-76
2021/03/10 01:03:43;;;;;;;21.67;11.83;;;;;;;2.79;86.43;101139.43;123442;1105;64936;-77
2021/03/10 01:06:09;;;;;;;29.37;14.93;;;;;;;2.73;86.71;101139.88;123385;1105;65243;-76
2021/03/10 01:08:35;;;;;;;37.33;17.60;;;;;;;2.71;86.44;101139.16;123421;1105;64923;-76
2021/03/10 01:11:01;;;;;;;41.33;19.33;;;;;;;2.72;87.55;101139.98;123399;1105;64907;-75
2021/03/10 01:13:28;;;;;;;42.78;18.20;;;;;;;2.74;87.55;101141.56;123341;1105;64956;-76
2021/03/10 01:15:54;;;;;;;43.50;18.30;;;;;;;2.77;87.08;101137.88;123380;1103;64893;-76
2021/03/10 01:18:20;;;;;;;39.40;19.37;;;;;;;2.79;87.61;101128.13;123380;1105;64998;-76
2021/03/10 01:20:46;;;;;;;36.10;17.13;;;;;;;2.77;87.44;101124.78;123831;1105;64870;-78
2021/03/10 01:23:12;;;;;;;38.00;17.65;;;;;;;2.74;87.84;101123.23;123431;1103;64921;-75
2021/03/10 01:25:39;;;;;;;37.23;17.23;;;;;;;2.75;87.15;101131.91;123372;1105;64880;-77
2021/03/10 01:28:05;;;;;;;37.47;18.43;;;;;;;2.72;87.67;101126.88;123364;1105;65214;-77
2021/03/10 01:30:31;;;;;;;52.25;20.35;;;;;;;2.72;87.75;101122.50;123353;1105;65077;-76
2021/03/10 01:32:58;;;;;;;39.70;18.83;;;;;;;2.72;87.89;101127.74;123388;1105;64991;-77
2021/03/10 01:35:25;;;;;;;41.43;20.57;;;;;;;2.71;87.73;101126.05;123437;1105;64927;-77
2021/03/10 01:37:51;;;;;;;36.47;17.40;;;;;;;2.68;87.96;101121.05;123431;1106;65675;-76
2021/03/10 01:40:19;;;;;;;38.80;19.43;;;;;;;2.63;87.61;101123.16;123438;1105;64943;-76
2021/03/10 01:42:45;;;;;;;39.13;16.47;;;;;;;2.62;88.26;101118.89;123444;1105;64938;-77
2021/03/10 01:45:12;;;;;;;41.77;17.40;;;;;;;2.60;87.71;101123.41;123453;1105;64892;-76
2021/03/10 01:47:41;;;;;;;44.27;20.43;;;;;;;2.60;88.11;101118.16;123481;1105;65093;-75
2021/03/10 01:50:08;;;;;;;52.93;20.23;;;;;;;2.58;88.26;101117.44;123490;1103;64941;-76
2021/03/10 01:52:35;;;;;;;47.43;20.57;;;;;;;2.59;88.21;101122.57;123442;1105;66126;-76
2021/03/10 01:55:01;;;;;;;46.77;20.33;;;;;;;2.61;88.68;101125.05;123417;1106;64897;-75
2021/03/10 01:57:27;;;;;;;38.83;17.63;;;;;;;2.63;88.17;101121.37;123411;1105;64950;-78
2021/03/10 01:59:56;;;;;;;46.10;18.07;;;;;;;2.60;88.53;101118.99;123392;1105;64924;-78
2021/03/10 02:02:22;;;;;;;48.13;18.93;;;;;;;2.59;88.37;101121.72;123660;1105;66116;-77
2021/03/10 02:04:48;;;;;;;44.97;19.93;;;;;;;2.60;87.90;101118.16;123432;1106;66575;-78
2021/03/10 02:07:25;;;;;;;53.20;21.57;;;;;;;2.62;88.18;101124.13;123348;1105;65706;-77
2021/03/10 02:10:12;;;;;;;49.87;22.77;;;;;;;2.64;88.46;101119.61;123521;1105;64933;-78
2021/03/10 02:13:11;;;;;;;46.73;18.60;;;;;;;2.64;88.66;101114.38;123387;1105;65048;-76
2021/03/10 02:16:04;;;;;;;45.90;20.50;;;;;;;2.64;88.39;101122.23;123402;1105;64976;-77
2021/03/10 02:18:41;;;;;;;39.37;18.07;;;;;;;2.65;88.74;101126.50;123529;1105;66106;-77
2021/03/10 02:21:19;;;;;;;38.23;18.47;;;;;;;2.60;88.04;101123.41;123472;1103;65705;-76
2021/03/10 02:23:55;;;;;;;40.67;19.30;;;;;;;2.62;89.00;101122.34;123452;1105;66157;-79
2021/03/10 02:26:32;;;;;;;40.77;19.53;;;;;;;2.63;88.84;101128.40;123599;1105;65246;-78
2021/03/10 02:29:06;;;;;;;51.33;20.00;;;;;;;2.63;88.11;101125.78;123407;1105;65020;-78
2021/03/10 02:31:36;;;;;;;45.40;20.00;;;;;;;2.64;88.68;101115.20;123407;1105;65090;-76
2021/03/10 02:34:05;;;;;;;41.23;19.13;;;;;;;2.69;88.30;101122.72;123661;1106;64891;-78
2021/03/10 02:36:41;;;;;;;38.03;18.30;;;;;;;2.69;87.79;101122.72;123484;1105;64995;-78
2021/03/10 02:39:08;;;;;;;43.93;18.13;;;;;;;2.68;87.97;101123.67;124004;1105;64998;-79
2021/03/10 02:41:35;;;;;;;40.83;18.93;;;;;;;2.66;88.29;101115.09;124120;1105;64911;-78
2021/03/10 02:44:03;;;;;;;46.50;20.07;;;;;;;2.66;87.80;101117.72;124014;1105;64879;-79
2021/03/10 02:46:30;;;;;;;40.17;19.13;;;;;;;2.67;88.33;101123.78;124386;1103;64950;-79
2021/03/10 02:48:58;;;;;;;41.40;19.70;;;;;;;2.66;88.70;101117.72;123488;1105;64960;-78
2021/03/10 02:51:25;;;;;;;53.50;19.90;;;;;;;2.66;87.93;101120.34;123378;1105;64841;-79
2021/03/10 02:53:52;;;;;;;45.03;21.00;;;;;;;2.68;88.29;101130.67;123646;1105;64927;-78
2021/03/10 02:56:20;;;;;;;39.23;19.57;;;;;;;2.67;88.45;101134.26;123333;1105;64886;-78
2021/03/10 02:58:46;;;;;;;25.10;10.80;;;;;;;2.63;88.82;101136.26;123461;1105;64889;-75
2021/03/10 03:01:14;;;;;;;44.00;19.35;;;;;;;2.60;88.53;101131.26;123394;1105;65699;-77
2021/03/10 03:03:41;;;;;;;50.47;21.67;;;;;;;2.60;88.65;101120.78;123758;1105;65039;-78
2021/03/10 03:06:07;;;;;;;51.08;19.92;;;;;;;2.60;88.45;101131.26;123495;1105;64923;-76
2021/03/10 03:08:34;;;;;;;45.63;19.83;;;;;;;2.60;88.48;101144.36;123431;1105;64917;-78
2021/03/10 03:11:02;;;;;;;43.23;18.57;;;;;;;2.60;87.82;101133.88;123543;1103;64895;-75
2021/03/10 03:13:29;;;;;;;35.55;16.45;;;;;;;2.57;89.33;101129.70;123402;1105;65387;-75
2021/03/10 03:15:58;;;;;;;32.27;16.83;;;;;;;2.54;88.99;101134.33;123348;1103;64892;-77
2021/03/10 03:18:26;;;;;;;42.03;21.33;;;;;;;2.50;88.40;101132.88;123586;1105;64902;-77
2021/03/10 03:20:54;;;;;;;41.00;18.90;;;;;;;2.49;88.40;101125.95;123477;1105;64997;-77
2021/03/10 03:23:25;;;;;;;41.30;20.07;;;;;;;2.52;88.95;101136.22;123433;1105;64894;-78
2021/03/10 03:25:52;;;;;;;45.27;20.23;;;;;;;2.53;88.70;101132.63;123644;1105;64901;-77
2021/03/10 03:28:21;;;;;;;39.20;17.57;;;;;;;2.54;88.51;101134.33;123751;1105;65653;-76
2021/03/10 03:30:49;;;;;;;42.60;19.20;;;;;;;2.57;88.18;101134.95;123387;1105;64847;-76
2021/03/10 03:33:20;;;;;;;39.17;18.93;;;;;;;2.58;89.01;101135.77;123568;1105;65225;-76
2021/03/10 03:35:51;;;;;;;39.10;18.90;;;;;;;2.57;88.32;101123.61;123718;1105;65330;-77
2021/03/10 03:38:23;;;;;;;39.10;19.27;;;;;;;2.55;88.56;101115.89;123452;1103;64898;-79
2021/03/10 03:40:52;;;;;;;44.47;19.60;;;;;;;2.60;88.72;101115.55;123527;1105;65382;-78
2021/03/10 03:43:19;;;;;;;43.27;21.43;;;;;;;2.63;88.49;101128.40;123509;1105;64870;-78
2021/03/10 03:45:46;;;;;;;45.07;20.17;;;;;;;2.65;88.69;101126.50;123583;1105;65898;-75
2021/03/10 03:48:12;;;;;;;41.33;19.50;;;;;;;2.64;88.26;101125.67;123409;1105;65025;-78
2021/03/10 03:50:42;;;;;;;36.80;17.97;;;;;;;2.63;88.93;101108.27;123407;1105;65083;-78
2021/03/10 03:53:09;;;;;;;38.07;19.53;;;;;;;2.61;89.00;101115.44;123419;1105;65628;-77
2021/03/10 03:55:35;;;;;;;33.50;15.07;;;;;;;2.59;88.84;101100.77;123405;1105;65251;-79
2021/03/10 03:58:05;;;;;;;36.13;17.83;;;;;;;2.58;88.60;101099.94;123426;1103;64979;-77
2021/03/10 04:00:32;;;;;;;39.83;19.50;;;;;;;2.58;88.78;101104.34;123467;1105;65001;-76
2021/03/10 04:03:00;;;;;;;53.30;21.60;;;;;;;2.57;88.94;101113.13;123413;1105;64995;-76
2021/03/10 04:05:26;;;;;;;49.30;21.27;;;;;;;2.55;89.29;101109.79;123680;1105;64876;-77
2021/03/10 04:08:07;;;;;;;51.17;20.43;;;;;;;2.54;88.30;101102.89;123408;1105;64889;-77
2021/03/10 04:10:36;;;;;;;43.20;20.87;;;;;;;2.53;89.05;101109.06;123398;1104;64921;-76
2021/03/10 04:13:03;;;;;;;46.03;20.03;;;;;;;2.50;89.23;101096.21;123677;1104;64972;-76
2021/03/10 04:15:32;;;;;;;47.50;19.73;;;;;;;2.53;89.21;101111.69;123386;1105;65346;-76
2021/03/10 04:17:58;;;;;;;38.87;17.47;;;;;;;2.53;88.58;101109.06;123562;1105;65062;-78
2021/03/10 04:20:25;;;;;;;38.85;16.97;;;;;;;2.53;89.49;101116.92;123373;1105;64987;-75
2021/03/10 04:22:52;;;;;;;43.60;18.13;;;;;;;2.51;88.62;101113.58;123474;1105;64908;-77
2021/03/10 04:25:19;;;;;;;48.50;20.90;;;;;;;2.52;88.28;101110.86;123408;1105;64895;-76
2021/03/10 04:27:45;;;;;;;45.43;20.27;;;;;;;2.53;88.36;101122.16;123402;1105;65244;-76
2021/03/10 04:30:13;;;;;;;51.03;20.70;;;;;;;2.54;88.89;101129.08;123490;1105;64985;-78
2021/03/10 04:32:39;;;;;;;47.77;22.30;;;;;;;2.53;89.42;101130.02;123456;1105;65284;-78
2021/03/10 04:35:07;;;;;;;52.27;21.83;;;;;;;2.51;89.60;101129.30;123560;1105;64936;-78
2021/03/10 04:37:33;;;;;;;52.23;21.67;;;;;;;2.50;89.26;101136.32;123494;1105;64899;-78
2021/03/10 04:40:00;;;;;;;48.90;20.33;;;;;;;2.51;89.26;101139.77;123403;1105;64886;-77
2021/03/10 04:42:26;;;;;;;55.17;24.03;;;;;;;2.50;89.66;101140.73;123718;1105;65761;-78
2021/03/10 04:44:52;;;;;;;57.20;23.03;;;;;;;2.49;89.49;101136.42;123394;1105;64928;-78
2021/03/10 04:47:19;;;;;;;59.13;24.03;;;;;;;2.49;89.13;101136.42;123461;1105;64905;-78
2021/03/10 04:49:45;;;;;;;51.23;22.50;;;;;;;2.48;89.25;101137.38;123453;1105;64899;-76
2021/03/10 04:52:12;;;;;;;50.70;22.60;;;;;;;2.48;89.99;101134.77;123400;1105;64905;-78
2021/03/10 04:54:39;;;;;;;52.67;22.60;;;;;;;2.47;89.42;101139.17;123400;1103;64912;-79
2021/03/10 04:57:05;;;;;;;49.73;22.63;;;;;;;2.46;89.48;101140.11;123429;1105;64921;-79
2021/03/10 04:59:31;;;;;;;51.60;21.95;;;;;;;2.47;89.72;101133.94;123420;1105;64985;-78
2021/03/10 05:02:01;;;;;;;58.87;23.37;;;;;;;2.49;89.98;101133.80;123427;1105;65690;-80
2021/03/10 05:04:27;;;;;;;52.03;23.07;;;;;;;2.51;89.60;101139.77;123481;1105;64870;-80
2021/03/10 05:06:54;;;;;;;53.43;24.03;;;;;;;2.52;88.88;101141.45;123443;1105;64969;-80
2021/03/10 05:09:20;;;;;;;54.80;24.73;;;;;;;2.55;89.67;101151.69;123517;1105;65376;-77
2021/03/10 05:11:46;;;;;;;48.70;21.27;;;;;;;2.59;89.46;101148.77;123446;1105;64981;-77
2021/03/10 05:14:12;;;;;;;44.83;17.50;;;;;;;2.60;89.92;101155.66;123532;1105;64915;-79
2021/03/10 05:16:38;;;;;;;42.77;19.90;;;;;;;2.62;89.24;101152.94;123471;1105;65708;-81
2021/03/10 05:19:05;;;;;;;45.37;20.13;;;;;;;2.62;89.44;101152.94;123431;1105;65115;-80
2021/03/10 05:21:31;;;;;;;42.90;19.83;;;;;;;2.62;89.56;101158.17;123461;1105;64937;-79
2021/03/10 05:23:57;;;;;;;50.05;21.05;;;;;;;2.60;88.57;101152.21;123454;1105;65330;-78
2021/03/10 05:26:24;;;;;;;47.10;22.53;;;;;;;2.57;88.53;101155.90;123466;1105;64889;-77
2021/03/10 05:28:50;;;;;;;50.33;21.27;;;;;;;2.56;88.73;101150.77;123518;1105;64944;-79
2021/03/10 05:31:16;;;;;;;46.80;19.47;;;;;;;2.56;88.96;101153.38;123463;1105;64912;-78
2021/03/10 05:33:42;;;;;;;38.13;19.60;;;;;;;2.56;89.40;101156.00;123490;1105;65033;-78
2021/03/10 05:36:09;;;;;;;34.73;18.32;;;;;;;2.54;89.50;101147.42;123425;1105;64898;-79
2021/03/10 05:38:35;;;;;;;21.70;10.53;;;;;;;2.50;88.80;101148.58;123458;1105;64953;-79
2021/03/10 05:41:01;;;;;;;40.57;19.13;;;;;;;2.49;89.79;101146.90;123390;1105;64908;-79
2021/03/10 05:43:29;;;;;;;30.00;14.33;;;;;;;2.48;88.85;101151.30;123444;1105;64943;-80
2021/03/10 05:45:56;;;;;;;33.57;16.93;;;;;;;2.49;89.51;101146.90;123637;1105;66037;-78
2021/03/10 05:48:22;;;;;;;46.87;19.63;;;;;;;2.48;89.39;101145.24;123439;1105;64909;-79
2021/03/10 05:50:49;;;;;;;43.47;18.90;;;;;;;2.51;89.45;101150.24;123377;1105;64956;-79
2021/03/10 05:53:19;;;;;;;52.33;21.12;;;;;;;2.50;89.70;101149.41;123542;1105;64889;-79
2021/03/10 05:55:47;;;;;;;42.85;20.70;;;;;;;2.52;89.71;101151.93;123509;1105;64828;-80
2021/03/10 05:58:14;;;;;;;45.90;20.07;;;;;;;2.54;89.07;101155.27;123537;1105;64911;-79
2021/03/10 06:00:47;;;;;;;44.30;21.53;;;;;;;2.55;89.93;101157.79;123411;1106;65479;-80
2021/03/10 06:03:15;;;;;;;45.80;19.73;;;;;;;2.57;89.71;101171.61;123457;1103;65709;-78
2021/03/10 06:05:43;;;;;;;43.97;20.20;;;;;;;2.59;89.98;101181.95;123421;1105;64991;-77
2021/03/10 06:08:14;;;;;;;36.80;17.03;;;;;;;2.57;89.31;101181.23;123437;1105;65374;-77
2021/03/10 06:10:46;;;;;;;50.93;20.37;;;;;;;2.57;90.01;101173.37;123367;1105;64959;-78
2021/03/10 06:13:27;;;;;;;49.40;19.53;;;;;;;2.61;88.68;101156.48;123394;1105;64979;-77
2021/03/10 06:16:02;;;;;;;44.93;21.37;;;;;;;2.65;89.36;101158.77;123393;1106;65641;-77
2021/03/10 06:18:34;;;;;;;50.07;19.03;;;;;;;2.65;88.93;101157.94;123187;1105;64995;-77
2021/03/10 06:21:07;;;;;;;41.90;17.90;;;;;;;2.69;89.58;101159.38;123356;1105;65042;-78
2021/03/10 06:23:35;;;;;;;42.73;19.40;;;;;;;2.71;89.23;101157.48;123420;1106;66114;-78
2021/03/10 06:26:03;;;;;;;39.20;17.20;;;;;;;2.74;89.41;101154.66;123341;1105;64975;-77
2021/03/10 06:28:40;;;;;;;22.90;10.10;;;;;;;2.76;89.11;101152.77;123331;1105;65036;-78
2021/03/10 06:31:21;;;;;;;40.23;18.83;;;;;;;2.78;88.93;101156.08;123395;1105;65036;-78
2021/03/10 06:34:15;;;;;;;44.27;18.07;;;;;;;2.82;89.41;101168.01;123399;1104;64963;-78
2021/03/10 06:36:50;;;;;;;48.90;19.90;;;;;;;2.89;89.51;101167.56;123407;1104;66161;-76
2021/03/10 06:39:30;;;;;;;46.57;20.20;;;;;;;2.91;88.23;101166.52;123337;1104;64904;-76
2021/03/10 06:41:57;;;;;;;46.63;21.07;;;;;;;2.96;88.71;101176.66;123385;1105;64969;-76
2021/03/10 06:44:29;;;;;;;39.80;17.17;;;;;;;2.98;89.04;101166.90;123398;1105;64947;-78
2021/03/10 06:47:04;;;;;;;40.87;19.00;;;;;;;3.00;87.93;101172.86;123717;1104;64949;-78
2021/03/10 06:49:35;;;;;;;35.75;16.75;;;;;;;3.04;88.85;101163.83;123482;1105;64927;-78
2021/03/10 06:52:06;;;;;;;42.05;18.35;;;;;;;3.10;87.96;101163.34;123404;1105;65925;-80
2021/03/10 06:54:33;;;;;;;44.17;20.10;;;;;;;3.18;88.78;101166.22;123527;1106;64908;-78
2021/03/10 06:57:08;;;;;;;53.57;22.63;;;;;;;3.23;87.53;101174.59;123366;1105;65049;-79
2021/03/10 06:59:49;;;;;;;44.37;17.57;;;;;;;3.29;88.38;101172.45;123377;1105;64888;-75
2021/03/10 07:02:20;;;;;;;40.13;18.67;;;;;;;3.31;87.14;101178.41;123448;1105;65344;-76
2021/03/10 07:04:55;;;;;;;39.97;18.97;;;;;;;3.34;87.72;101181.65;123407;1105;64895;-76
2021/03/10 07:07:23;;;;;;;47.20;19.17;;;;;;;3.36;86.99;101177.13;123410;1105;64918;-76
2021/03/10 07:09:50;;;;;;;39.97;18.93;;;;;;;3.41;87.54;101192.51;123364;1105;65685;-76
2021/03/10 07:12:18;;;;;;;44.37;19.17;;;;;;;3.42;86.63;101194.16;123516;1105;64962;-77
2021/03/10 07:14:47;;;;;;;40.00;17.90;;;;;;;3.39;86.09;101203.11;123490;1105;64889;-76
2021/03/10 07:17:21;;;;;;;46.97;21.23;;;;;;;3.39;87.08;101203.11;123663;1106;64930;-78
2021/03/10 07:19:49;;;;;;;40.90;17.90;;;;;;;3.38;86.91;101197.97;123604;1105;64901;-77
2021/03/10 07:22:36;;;;;;;40.63;18.00;;;;;;;3.40;87.03;101194.30;123532;1105;65075;-77
2021/03/10 07:25:07;;;;;;;42.83;19.13;;;;;;;3.44;86.64;101187.02;123584;1105;64845;-77
2021/03/10 07:27:53;;;;;;;36.80;19.23;;;;;;;3.48;86.33;101188.45;123453;1105;64847;-77
2021/03/10 07:30:33;;;;;;;39.60;18.20;;;;;;;3.52;87.09;101195.14;123421;1105;65141;-77
2021/03/10 07:33:10;;;;;;;30.00;14.07;;;;;;;3.53;86.03;101195.97;123473;1105;64854;-78
2021/03/10 07:35:57;;;;;;;31.80;13.57;;;;;;;3.50;86.36;101204.91;123297;1104;64982;-76
2021/03/10 07:38:39;;;;;;;47.83;19.30;;;;;;;3.50;86.54;101207.53;123370;1105;64920;-76
2021/03/10 07:41:07;;;;;;;44.90;19.27;;;;;;;3.51;86.08;101209.22;123331;1105;65318;-76
2021/03/10 07:43:42;;;;;;;39.97;18.30;;;;;;;3.52;86.56;101210.88;123393;1105;64912;-75
2021/03/10 07:46:25;;;;;;;40.70;18.23;;;;;;;3.53;85.55;101212.56;123356;1105;64978;-74
2021/03/10 07:48:53;;;;;;;27.53;14.83;;;;;;;3.51;85.39;101206.60;123377;1105;65351;-76
2021/03/10 07:51:25;;;;;;;22.20;11.57;;;;;;;3.53;85.38;101206.46;123462;1105;66065;-76
2021/03/10 07:53:51;;;;;;;44.03;19.80;;;;;;;3.56;85.25;101204.45;123378;1105;64927;-76
2021/03/10 07:56:31;;;;;;;38.40;19.43;;;;;;;3.61;84.79;101214.59;123382;1105;64901;-76
2021/03/10 07:59:07;;;;;;;37.27;17.60;;;;;;;3.66;84.86;101209.84;123408;1105;64945;-76
2021/03/10 08:01:34;;;;;;;38.50;18.77;;;;;;;3.70;84.14;101213.91;123463;1105;65004;-77
2021/03/10 08:04:10;;;;;;;27.07;13.17;;;;;;;3.74;85.37;101215.34;123749;1105;64899;-79
2021/03/10 08:06:47;;;;;;;33.27;16.93;;;;;;;3.78;84.42;101214.16;123382;1105;65064;-77
2021/03/10 08:09:18;;;;;;;36.00;17.45;;;;;;;3.89;84.89;101215.95;123364;1105;66138;-79
2021/03/10 08:11:46;;;;;;;37.50;18.63;;;;;;;4.00;84.99;101210.69;123382;1105;64959;-78
2021/03/10 08:14:16;;;;;;;34.27;17.37;;;;;;;4.06;83.88;101212.84;123358;1105;65066;-78
2021/03/10 08:16:48;;;;;;;26.93;13.60;;;;;;;4.13;83.53;101222.88;123492;1105;65693;-78
2021/03/10 08:19:22;;;;;;;18.63;10.00;;;;;;;4.14;83.35;101222.73;123429;1105;64863;-79
2021/03/10 08:21:54;;;;;;;36.65;17.82;;;;;;;4.18;82.43;101224.16;123519;1105;64898;-78
2021/03/10 08:24:25;;;;;;;22.20;9.60;;;;;;;4.22;82.00;101214.27;123425;1105;64865;-80
2021/03/10 08:26:54;;;;;;;35.90;16.95;;;;;;;4.28;81.80;101219.03;123572;1105;65368;-78
2021/03/10 08:29:21;;;;;;;33.53;16.27;;;;;;;4.33;80.87;101211.61;123515;1105;65398;-79
2021/03/10 08:31:55;;;;;;;29.20;14.50;;;;;;;4.37;81.35;101218.30;123557;1104;64933;-77
2021/03/10 08:34:36;;;;;;;22.70;12.13;;;;;;;4.42;81.55;101218.78;123446;1105;64850;-76
2021/03/10 08:37:05;;;;;;;32.27;16.30;;;;;;;4.45;80.94;101205.39;123338;1105;64966;-78
2021/03/10 08:39:32;;;;;;;38.10;16.97;;;;;;;4.52;81.24;101220.66;123661;1105;64884;-78
2021/03/10 08:41:59;;;;;;;33.90;15.93;;;;;;;4.60;80.24;101220.89;123330;1105;64837;-77
2021/03/10 08:44:27;;;;;;;23.97;12.10;;;;;;;4.65;79.52;101218.72;123360;1105;64975;-75
2021/03/10 08:46:55;;;;;;;32.30;15.93;;;;;;;4.75;80.20;101221.45;123968;1106;64972;-79
2021/03/10 08:49:31;;;;;;;23.40;11.20;;;;;;;4.85;79.72;101212.69;123880;1105;64873;-77
2021/03/10 08:52:04;;;;;;;19.00;9.33;;;;;;;4.93;78.94;101219.11;123669;1105;65061;-77
2021/03/10 08:54:30;;;;;;;26.47;14.10;;;;;;;5.02;78.48;101213.94;123668;1105;64851;-79
2021/03/10 08:56:57;;;;;;;18.23;9.50;;;;;;;5.15;76.98;101208.50;123359;1105;65038;-77
2021/03/10 08:59:36;;;;;;;25.55;12.98;;;;;;;5.25;77.08;101216.48;123456;1105;65251;-78
2021/03/10 09:02:03;;;;;;;20.85;11.35;;;;;;;5.37;76.94;101217.23;123461;1103;65026;-78
2021/03/10 09:04:30;;;;;;;29.10;14.80;;;;;;;5.50;76.69;101223.13;123471;1105;64927;-77
2021/03/10 09:07:01;;;;;;;25.17;13.30;;;;;;;5.63;75.91;101213.27;123467;1105;64895;-77
2021/03/10 09:09:32;;;;;;;17.80;9.27;;;;;;;5.75;76.02;101215.80;123715;1105;64915;-77
2021/03/10 09:11:59;;;;;;;27.75;14.25;;;;;;;5.88;73.77;101221.69;123374;1105;64850;-76
2021/03/10 09:14:27;;;;;;;26.03;12.43;;;;;;;5.97;72.65;101215.68;123716;1105;65712;-78
2021/03/10 09:16:56;;;;;;;19.17;9.53;;;;;;;6.10;71.95;101216.28;123525;1103;65711;-79
2021/03/10 09:19:44;;;;;;;20.53;12.20;;;;;;;6.23;70.99;101209.95;123643;1105;65038;-76
2021/03/10 09:22:21;;;;;;;16.07;8.93;;;;;;;6.35;70.53;101215.94;123548;1105;64892;-79
2021/03/10 09:25:06;;;;;;;23.03;12.50;;;;;;;6.49;70.50;101213.75;123427;1105;64898;-76
2021/03/10 09:27:33;;;;;;;23.87;13.93;;;;;;;6.68;70.27;101209.49;123477;1105;64927;-77
2021/03/10 09:30:06;;;;;;;20.30;10.47;;;;;;;6.83;69.74;101200.20;123537;1105;65415;-79
2021/03/10 09:32:43;;;;;;;20.40;10.33;;;;;;;6.96;67.97;101202.56;123335;1105;64946;-75
2021/03/10 09:35:15;;;;;;;21.83;12.40;;;;;;;6.97;63.83;101193.69;123328;1104;64873;-77
2021/03/10 09:37:44;;;;;;;21.83;12.53;;;;;;;6.96;64.71;101196.46;124085;1105;65003;-79
2021/03/10 09:40:11;;;;;;;19.47;11.33;;;;;;;6.99;65.77;101201.45;123615;1105;65367;-78
2021/03/10 09:42:37;;;;;;;20.83;11.83;;;;;;;6.99;65.84;101202.30;123525;1105;65020;-75
2021/03/10 09:45:04;;;;;;;23.57;12.35;;;;;;;7.02;65.63;101191.45;123448;1105;64927;-76
2021/03/10 09:47:30;;;;;;;23.63;13.47;;;;;;;7.05;65.52;101192.98;124037;1104;64946;-75
2021/03/10 09:49:59;;;;;;;19.93;11.30;;;;;;;7.03;63.65;101192.28;123612;1105;64901;-76
2021/03/10 09:52:39;;;;;;;22.77;13.50;;;;;;;7.08;64.32;101184.80;123497;1105;65122;-77
2021/03/10 09:55:11;;;;;;;27.50;15.53;;;;;;;7.11;63.96;101182.70;123398;1106;65065;-79
2021/03/10 09:57:37;;;;;;;20.35;11.25;;;;;;;7.12;64.22;101191.47;123421;1105;64902;-78
2021/03/10 10:00:17;;;;;;;23.10;13.43;;;;;;;7.17;64.28;101178.67;123431;1105;65059;-78
2021/03/10 10:02:47;;;;;;;21.13;12.37;;;;;;;7.17;63.17;101178.67;123456;1105;65003;-77
2021/03/10 10:05:22;;;;;;;21.67;12.37;;;;;;;7.14;62.87;101173.69;123919;1105;64979;-79
2021/03/10 10:07:49;;;;;;;25.20;13.50;;;;;;;7.20;63.26;101170.46;123519;1105;64902;-79
2021/03/10 10:10:17;;;;;;;26.63;11.67;;;;;;;7.27;62.96;101171.58;123840;1105;65036;-76
2021/03/10 10:12:46;;;;;;;23.77;13.63;;;;;;;7.32;62.42;101168.52;123759;1105;64927;-78
2021/03/10 10:15:15;;;;;;;16.77;10.33;;;;;;;7.37;62.51;101168.08;123360;1105;64901;-77
2021/03/10 10:17:43;;;;;;;20.90;11.63;;;;;;;7.45;63.57;101153.19;123506;1105;64924;-78
2021/03/10 10:20:11;;;;;;;24.53;12.87;;;;;;;7.54;62.88;101148.85;123528;1105;64947;-78
2021/03/10 10:22:37;;;;;;;22.23;12.80;;;;;;;7.57;60.36;101145.94;123638;1105;64811;-77
2021/03/10 10:25:04;;;;;;;19.70;11.10;;;;;;;7.58;60.76;101154.69;123431;1105;65745;-78
2021/03/10 10:27:31;;;;;;;19.27;10.73;;;;;;;7.58;61.22;101155.52;123612;1104;64857;-79
2021/03/10 10:29:57;;;;;;;18.43;10.53;;;;;;;7.67;62.29;101154.67;123390;1105;65122;-77
2021/03/10 10:32:24;;;;;;;23.63;11.50;;;;;;;7.69;60.71;101147.44;123805;1105;65129;-77
2021/03/10 10:34:55;;;;;;;16.50;9.27;;;;;;;7.65;59.05;101143.42;123821;1105;64902;-79
2021/03/10 10:37:22;;;;;;;20.77;12.50;;;;;;;7.63;60.48;101140.09;124795;1105;62981;-79
2021/03/10 10:39:49;;;;;;;20.55;12.55;;;;;;;7.64;61.61;101139.09;123979;1105;65358;-78
2021/03/10 10:42:17;;;;;;;17.97;9.63;;;;;;;7.64;60.06;101144.38;124392;1105;64872;-78
2021/03/10 10:44:43;;;;;;;17.35;10.25;;;;;;;7.66;59.69;101147.70;124021;1105;64998;-78
2021/03/10 10:47:11;;;;;;;21.10;12.77;;;;;;;7.74;59.78;101145.17;123473;1105;64897;-79
2021/03/10 10:49:50;;;;;;;17.07;10.60;;;;;;;7.87;58.87;101138.73;123500;1104;64943;-78
2021/03/10 10:52:17;;;;;;;16.47;10.23;;;;;;;7.98;60.25;101137.70;123565;1105;64889;-78
2021/03/10 10:54:43;;;;;;;16.90;8.93;;;;;;;8.02;57.51;101133.80;123414;1105;64961;-80
2021/03/10 10:57:09;;;;;;;20.63;10.73;;;;;;;8.09;56.39;101145.42;123368;1105;65053;-76
2021/03/10 10:59:36;;;;;;;18.40;10.20;;;;;;;8.13;57.28;101133.58;123836;1105;64928;-77
2021/03/10 11:02:03;;;;;;;19.77;10.47;;;;;;;8.11;56.01;101136.36;123623;1105;64928;-78
2021/03/10 11:04:29;;;;;;;22.67;12.37;;;;;;;8.02;54.92;101137.27;123421;1105;65355;-77
2021/03/10 11:06:56;;;;;;;16.90;10.23;;;;;;;7.99;56.11;101131.43;123405;1105;64988;-77
2021/03/10 11:09:22;;;;;;;20.23;12.37;;;;;;;7.95;56.40;101144.12;123607;1105;65093;-78
2021/03/10 11:11:49;;;;;;;18.83;11.80;;;;;;;7.99;56.08;101140.21;123442;1105;65032;-78
2021/03/10 11:14:15;;;;;;;15.80;10.23;;;;;;;8.10;55.77;101137.36;123436;1105;64921;-78
2021/03/10 11:16:41;;;;;;;12.53;7.60;;;;;;;8.21;56.51;101132.86;123411;1105;65786;-78
2021/03/10 11:19:08;;;;;;;19.70;11.70;;;;;;;8.30;55.51;101131.95;123349;1105;64908;-78